sensor_id;sensor_type;location;lat;lon;timestamp;P1;durP1;ratioP1;P2;durP2;ratioP2
3613;SDS011;1821;50.936;6.854;2022-10-30T00:00:24;13.68;;;7.38;;
3613;SDS011;1821;50.936;6.854;2022-10-30T00:01:06;13.35;;;7.68;;
3613;SDS011;1821;50.936;6.854;2022-10-30T00:01:48;9.75;;;6.82;;
3613;SDS011;1821;50.936;6.854;2022-10-30T00:02:30;10.18;;;6.57;;
3613;SDS011;1821;50.936;6.854;2022-10-30T00:03:12;11.23;;;7.10;;
3613;SDS011;1821;50.936;6.854;2022-10-30T00:03:55;13.95;;;7.30;;
3613;SDS011;1821;50.936;6.854;2022-10-30T00:04:37;13.15;;;6.82;;
3613;SDS011;1821;50.936;6.854;2022-10-30T00:05:19;11.38;;;6.60;;
3613;SDS011;1821;50.936;6.854;2022-10-30T00:06:04;14.80;;;6.97;;
3613;SDS011;1821;50.936;6.854;2022-10-30T00:06:47;14.70;;;6.60;;
3613;SDS011;1821;50.936;6.854;2022-10-30T00:07:29;13.90;;;6.90;;
3613;SDS011;1821;50.936;6.854;2022-10-30T00:08:11;12.90;;;7.05;;
3613;SDS011;1821;50.936;6.854;2022-10-30T00:08:54;13.90;;;6.88;;
3613;SDS011;1821;50.936;6.854;2022-10-30T00:09:36;13.60;;;6.65;;
3613;SDS011;1821;50.936;6.854;2022-10-30T00:10:17;14.43;;;6.75;;
3613;SDS011;1821;50.936;6.854;2022-10-30T00:11:09;12.05;;;6.25;;
3613;SDS011;1821;50.936;6.854;2022-10-30T00:11:52;9.90;;;6.72;;
3613;SDS011;1821;50.936;6.854;2022-10-30T00:12:34;9.90;;;7.05;;
3613;SDS011;1821;50.936;6.854;2022-10-30T00:13:16;13.02;;;6.60;;
3613;SDS011;1821;50.936;6.854;2022-10-30T00:13:59;12.38;;;6.30;;
3613;SDS011;1821;50.936;6.854;2022-10-30T00:14:41;14.20;;;6.60;;
3613;SDS011;1821;50.936;6.854;2022-10-30T00:15:22;12.70;;;6.90;;
3613;SDS011;1821;50.936;6.854;2022-10-30T00:16:05;13.10;;;7.93;;
3613;SDS011;1821;50.936;6.854;2022-10-30T00:16:48;16.35;;;7.70;;
3613;SDS011;1821;50.936;6.854;2022-10-30T00:17:29;16.52;;;7.70;;
3613;SDS011;1821;50.936;6.854;2022-10-30T00:18:11;15.65;;;7.68;;
3613;SDS011;1821;50.936;6.854;2022-10-30T00:18:54;15.30;;;7.10;;
3613;SDS011;1821;50.936;6.854;2022-10-30T00:19:36;14.02;;;7.32;;
3613;SDS011;1821;50.936;6.854;2022-10-30T00:20:17;13.82;;;7.72;;
3613;SDS011;1821;50.936;6.854;2022-10-30T00:21:03;13.30;;;7.68;;
3613;SDS011;1821;50.936;6.854;2022-10-30T00:21:49;12.07;;;6.80;;
3613;SDS011;1821;50.936;6.854;2022-10-30T00:22:31;15.32;;;6.63;;
3613;SDS011;1821;50.936;6.854;2022-10-30T00:23:14;12.27;;;7.30;;
3613;SDS011;1821;50.936;6.854;2022-10-30T00:23:56;10.63;;;6.95;;
3613;SDS011;1821;50.936;6.854;2022-10-30T00:24:38;12.43;;;6.75;;
3613;SDS011;1821;50.936;6.854;2022-10-30T00:25:19;15.20;;;6.97;;
3613;SDS011;1821;50.936;6.854;2022-10-30T00:26:02;13.30;;;6.80;;
3613;SDS011;1821;50.936;6.854;2022-10-30T00:26:44;12.10;;;6.90;;
3613;SDS011;1821;50.936;6.854;2022-10-30T00:27:26;10.05;;;6.78;;
3613;SDS011;1821;50.936;6.854;2022-10-30T00:28:08;12.27;;;7.00;;
3613;SDS011;1821;50.936;6.854;2022-10-30T00:28:50;16.90;;;7.10;;
3613;SDS011;1821;50.936;6.854;2022-10-30T00:29:33;12.18;;;7.07;;
3613;SDS011;1821;50.936;6.854;2022-10-30T00:30:15;11.02;;;7.20;;
3613;SDS011;1821;50.936;6.854;2022-10-30T00:30:58;11.75;;;7.15;;
3613;SDS011;1821;50.936;6.854;2022-10-30T00:31:43;11.82;;;7.30;;
3613;SDS011;1821;50.936;6.854;2022-10-30T00:32:25;10.82;;;7.03;;
3613;SDS011;1821;50.936;6.854;2022-10-30T00:33:07;12.90;;;7.20;;
3613;SDS011;1821;50.936;6.854;2022-10-30T00:33:49;14.00;;;7.80;;
3613;SDS011;1821;50.936;6.854;2022-10-30T00:34:32;12.73;;;7.00;;
3613;SDS011;1821;50.936;6.854;2022-10-30T00:35:14;11.77;;;7.35;;
3613;SDS011;1821;50.936;6.854;2022-10-30T00:35:55;13.40;;;7.75;;
3613;SDS011;1821;50.936;6.854;2022-10-30T00:36:37;14.63;;;7.28;;
3613;SDS011;1821;50.936;6.854;2022-10-30T00:37:19;13.18;;;7.10;;
3613;SDS011;1821;50.936;6.854;2022-10-30T00:38:01;14.90;;;7.20;;
3613;SDS011;1821;50.936;6.854;2022-10-30T00:38:43;12.57;;;7.20;;
3613;SDS011;1821;50.936;6.854;2022-10-30T00:39:24;12.68;;;7.68;;
3613;SDS011;1821;50.936;6.854;2022-10-30T00:40:06;12.05;;;6.88;;
3613;SDS011;1821;50.936;6.854;2022-10-30T00:40:52;12.48;;;7.35;;
3613;SDS011;1821;50.936;6.854;2022-10-30T00:41:34;12.90;;;7.00;;
3613;SDS011;1821;50.936;6.854;2022-10-30T00:42:17;13.50;;;7.00;;
3613;SDS011;1821;50.936;6.854;2022-10-30T00:42:58;9.38;;;6.60;;
3613;SDS011;1821;50.936;6.854;2022-10-30T00:43:40;11.13;;;7.35;;
3613;SDS011;1821;50.936;6.854;2022-10-30T00:44:32;12.27;;;7.33;;
3613;SDS011;1821;50.936;6.854;2022-10-30T00:45:24;12.85;;;7.00;;
3613;SDS011;1821;50.936;6.854;2022-10-30T00:46:14;14.77;;;7.90;;
3613;SDS011;1821;50.936;6.854;2022-10-30T00:46:56;11.73;;;7.03;;
3613;SDS011;1821;50.936;6.854;2022-10-30T00:47:54;13.20;;;7.32;;
3613;SDS011;1821;50.936;6.854;2022-10-30T00:48:39;12.02;;;7.07;;
3613;SDS011;1821;50.936;6.854;2022-10-30T00:49:22;13.52;;;6.93;;
3613;SDS011;1821;50.936;6.854;2022-10-30T00:50:09;16.23;;;6.60;;
3613;SDS011;1821;50.936;6.854;2022-10-30T00:50:53;14.30;;;7.82;;
3613;SDS011;1821;50.936;6.854;2022-10-30T00:51:35;11.95;;;7.15;;
3613;SDS011;1821;50.936;6.854;2022-10-30T00:52:19;11.90;;;7.32;;
3613;SDS011;1821;50.936;6.854;2022-10-30T00:53:06;12.90;;;7.10;;
3613;SDS011;1821;50.936;6.854;2022-10-30T00:53:55;14.60;;;7.20;;
3613;SDS011;1821;50.936;6.854;2022-10-30T00:54:38;9.70;;;6.70;;
3613;SDS011;1821;50.936;6.854;2022-10-30T00:55:22;13.15;;;7.55;;
3613;SDS011;1821;50.936;6.854;2022-10-30T00:56:07;16.20;;;7.65;;
3613;SDS011;1821;50.936;6.854;2022-10-30T00:56:52;13.95;;;7.47;;
3613;SDS011;1821;50.936;6.854;2022-10-30T00:57:34;15.20;;;7.20;;
3613;SDS011;1821;50.936;6.854;2022-10-30T00:58:19;13.50;;;8.23;;
3613;SDS011;1821;50.936;6.854;2022-10-30T00:59:07;11.30;;;7.60;;
3613;SDS011;1821;50.936;6.854;2022-10-30T00:59:56;8.45;;;6.43;;
3613;SDS011;1821;50.936;6.854;2022-10-30T01:00:37;11.68;;;7.50;;
3613;SDS011;1821;50.936;6.854;2022-10-30T01:01:23;13.32;;;7.60;;
3613;SDS011;1821;50.936;6.854;2022-10-30T01:02:07;12.13;;;7.07;;
3613;SDS011;1821;50.936;6.854;2022-10-30T01:02:50;14.18;;;7.40;;
3613;SDS011;1821;50.936;6.854;2022-10-30T01:03:32;15.25;;;7.75;;
3613;SDS011;1821;50.936;6.854;2022-10-30T01:04:15;13.32;;;7.50;;
3613;SDS011;1821;50.936;6.854;2022-10-30T01:04:57;15.73;;;7.60;;
3613;SDS011;1821;50.936;6.854;2022-10-30T01:05:41;12.10;;;7.18;;
3613;SDS011;1821;50.936;6.854;2022-10-30T01:06:27;13.48;;;7.35;;
3613;SDS011;1821;50.936;6.854;2022-10-30T01:07:11;13.98;;;8.00;;
3613;SDS011;1821;50.936;6.854;2022-10-30T01:07:56;12.50;;;8.52;;
3613;SDS011;1821;50.936;6.854;2022-10-30T01:08:38;15.80;;;8.20;;
3613;SDS011;1821;50.936;6.854;2022-10-30T01:09:20;13.98;;;7.38;;
3613;SDS011;1821;50.936;6.854;2022-10-30T01:10:03;9.20;;;6.88;;
3613;SDS011;1821;50.936;6.854;2022-10-30T01:10:45;11.27;;;7.10;;
3613;SDS011;1821;50.936;6.854;2022-10-30T01:11:28;11.10;;;7.30;;
3613;SDS011;1821;50.936;6.854;2022-10-30T01:12:09;13.40;;;7.60;;
3613;SDS011;1821;50.936;6.854;2022-10-30T01:12:51;11.93;;;8.05;;
3613;SDS011;1821;50.936;6.854;2022-10-30T01:13:35;12.55;;;8.35;;
3613;SDS011;1821;50.936;6.854;2022-10-30T01:14:19;13.85;;;8.10;;
3613;SDS011;1821;50.936;6.854;2022-10-30T01:15:02;13.77;;;8.00;;
3613;SDS011;1821;50.936;6.854;2022-10-30T01:15:49;11.95;;;7.00;;
3613;SDS011;1821;50.936;6.854;2022-10-30T01:18:30;10.57;;;7.95;;
3613;SDS011;1821;50.936;6.854;2022-10-30T01:21:18;18.27;;;8.27;;
3613;SDS011;1821;50.936;6.854;2022-10-30T01:23:44;9.85;;;7.00;;
3613;SDS011;1821;50.936;6.854;2022-10-30T01:26:51;14.05;;;7.18;;
3613;SDS011;1821;50.936;6.854;2022-10-30T01:28:49;14.68;;;7.55;;
3613;SDS011;1821;50.936;6.854;2022-10-30T01:29:54;12.13;;;7.70;;
3613;SDS011;1821;50.936;6.854;2022-10-30T01:31:20;13.40;;;7.90;;
3613;SDS011;1821;50.936;6.854;2022-10-30T01:34:18;13.15;;;7.18;;
3613;SDS011;1821;50.936;6.854;2022-10-30T01:35:11;14.90;;;7.50;;
3613;SDS011;1821;50.936;6.854;2022-10-30T01:37:37;13.65;;;7.35;;
3613;SDS011;1821;50.936;6.854;2022-10-30T01:39:13;13.10;;;7.25;;
3613;SDS011;1821;50.936;6.854;2022-10-30T01:40:11;14.25;;;7.53;;
3613;SDS011;1821;50.936;6.854;2022-10-30T01:40:54;14.05;;;7.70;;
3613;SDS011;1821;50.936;6.854;2022-10-30T01:41:36;14.38;;;7.63;;
3613;SDS011;1821;50.936;6.854;2022-10-30T01:43:34;18.42;;;8.02;;
3613;SDS011;1821;50.936;6.854;2022-10-30T01:44:19;13.40;;;7.95;;
3613;SDS011;1821;50.936;6.854;2022-10-30T01:47:37;16.63;;;7.45;;
3613;SDS011;1821;50.936;6.854;2022-10-30T01:48:37;14.20;;;7.15;;
3613;SDS011;1821;50.936;6.854;2022-10-30T01:49:38;16.63;;;8.75;;
3613;SDS011;1821;50.936;6.854;2022-10-30T01:54:14;13.85;;;7.65;;
3613;SDS011;1821;50.936;6.854;2022-10-30T01:55:21;15.63;;;8.35;;
3613;SDS011;1821;50.936;6.854;2022-10-30T01:56:14;13.23;;;8.10;;
3613;SDS011;1821;50.936;6.854;2022-10-30T01:59:35;13.48;;;8.10;;
3613;SDS011;1821;50.936;6.854;2022-10-30T02:00:24;10.38;;;7.78;;
3613;SDS011;1821;50.936;6.854;2022-10-30T02:01:07;12.32;;;8.02;;
3613;SDS011;1821;50.936;6.854;2022-10-30T02:01:49;11.82;;;7.72;;
3613;SDS011;1821;50.936;6.854;2022-10-30T02:02:31;12.90;;;8.15;;
3613;SDS011;1821;50.936;6.854;2022-10-30T02:03:13;12.10;;;7.97;;
3613;SDS011;1821;50.936;6.854;2022-10-30T02:03:55;15.40;;;8.10;;
3613;SDS011;1821;50.936;6.854;2022-10-30T02:04:37;14.30;;;7.60;;
3613;SDS011;1821;50.936;6.854;2022-10-30T02:05:38;11.55;;;7.53;;
3613;SDS011;1821;50.936;6.854;2022-10-30T02:06:23;14.95;;;8.50;;
3613;SDS011;1821;50.936;6.854;2022-10-30T02:07:05;11.95;;;7.90;;
3613;SDS011;1821;50.936;6.854;2022-10-30T02:07:47;13.10;;;8.48;;
3613;SDS011;1821;50.936;6.854;2022-10-30T02:08:29;10.48;;;8.90;;
3613;SDS011;1821;50.936;6.854;2022-10-30T02:09:11;12.45;;;8.52;;
3613;SDS011;1821;50.936;6.854;2022-10-30T02:09:56;12.45;;;7.65;;
3613;SDS011;1821;50.936;6.854;2022-10-30T02:10:38;16.15;;;7.85;;
3613;SDS011;1821;50.936;6.854;2022-10-30T02:11:25;12.45;;;7.68;;
3613;SDS011;1821;50.936;6.854;2022-10-30T02:12:07;14.27;;;8.65;;
3613;SDS011;1821;50.936;6.854;2022-10-30T02:12:50;11.23;;;8.27;;
3613;SDS011;1821;50.936;6.854;2022-10-30T02:13:31;14.20;;;7.77;;
3613;SDS011;1821;50.936;6.854;2022-10-30T02:14:15;14.85;;;8.25;;
3613;SDS011;1821;50.936;6.854;2022-10-30T02:15:04;13.27;;;7.60;;
3613;SDS011;1821;50.936;6.854;2022-10-30T02:15:47;13.50;;;7.15;;
3613;SDS011;1821;50.936;6.854;2022-10-30T02:16:30;14.20;;;7.88;;
3613;SDS011;1821;50.936;6.854;2022-10-30T02:17:15;15.68;;;8.60;;
3613;SDS011;1821;50.936;6.854;2022-10-30T02:17:57;14.38;;;8.07;;
3613;SDS011;1821;50.936;6.854;2022-10-30T02:18:40;15.15;;;7.80;;
3613;SDS011;1821;50.936;6.854;2022-10-30T02:19:22;14.30;;;8.43;;
3613;SDS011;1821;50.936;6.854;2022-10-30T02:20:04;13.80;;;8.05;;
3613;SDS011;1821;50.936;6.854;2022-10-30T02:20:47;13.60;;;8.13;;
3613;SDS011;1821;50.936;6.854;2022-10-30T02:21:29;14.50;;;8.15;;
3613;SDS011;1821;50.936;6.854;2022-10-30T02:22:11;17.17;;;8.50;;
3613;SDS011;1821;50.936;6.854;2022-10-30T02:22:53;14.20;;;7.70;;
3613;SDS011;1821;50.936;6.854;2022-10-30T02:23:39;12.40;;;8.15;;
3613;SDS011;1821;50.936;6.854;2022-10-30T02:24:21;13.23;;;8.98;;
3613;SDS011;1821;50.936;6.854;2022-10-30T02:25:03;13.68;;;8.63;;
3613;SDS011;1821;50.936;6.854;2022-10-30T02:25:44;12.02;;;8.00;;
3613;SDS011;1821;50.936;6.854;2022-10-30T02:26:26;12.75;;;7.93;;
3613;SDS011;1821;50.936;6.854;2022-10-30T02:27:08;12.48;;;7.97;;
3613;SDS011;1821;50.936;6.854;2022-10-30T02:27:50;10.83;;;7.20;;
3613;SDS011;1821;50.936;6.854;2022-10-30T02:28:31;10.45;;;6.63;;
3613;SDS011;1821;50.936;6.854;2022-10-30T02:29:13;14.85;;;7.65;;
3613;SDS011;1821;50.936;6.854;2022-10-30T02:29:55;14.70;;;9.30;;
3613;SDS011;1821;50.936;6.854;2022-10-30T02:30:37;17.48;;;9.07;;
3613;SDS011;1821;50.936;6.854;2022-10-30T02:31:18;12.38;;;7.53;;
3613;SDS011;1821;50.936;6.854;2022-10-30T02:32:00;13.05;;;7.95;;
3613;SDS011;1821;50.936;6.854;2022-10-30T02:32:42;12.35;;;7.35;;
3613;SDS011;1821;50.936;6.854;2022-10-30T02:33:24;13.25;;;7.70;;
3613;SDS011;1821;50.936;6.854;2022-10-30T02:34:06;13.32;;;7.70;;
3613;SDS011;1821;50.936;6.854;2022-10-30T02:34:47;12.73;;;7.43;;
3613;SDS011;1821;50.936;6.854;2022-10-30T02:35:29;13.65;;;8.45;;
3613;SDS011;1821;50.936;6.854;2022-10-30T02:36:11;13.52;;;8.60;;
3613;SDS011;1821;50.936;6.854;2022-10-30T02:36:55;13.68;;;8.60;;
3613;SDS011;1821;50.936;6.854;2022-10-30T02:37:37;13.48;;;7.97;;
3613;SDS011;1821;50.936;6.854;2022-10-30T02:38:19;13.07;;;8.10;;
3613;SDS011;1821;50.936;6.854;2022-10-30T02:39:01;13.20;;;8.13;;
3613;SDS011;1821;50.936;6.854;2022-10-30T02:39:43;13.27;;;8.20;;
3613;SDS011;1821;50.936;6.854;2022-10-30T02:40:24;13.57;;;8.18;;
3613;SDS011;1821;50.936;6.854;2022-10-30T02:41:06;11.55;;;7.75;;
3613;SDS011;1821;50.936;6.854;2022-10-30T02:41:48;13.02;;;8.15;;
3613;SDS011;1821;50.936;6.854;2022-10-30T02:42:29;12.77;;;7.70;;
3613;SDS011;1821;50.936;6.854;2022-10-30T02:43:11;10.07;;;7.40;;
3613;SDS011;1821;50.936;6.854;2022-10-30T02:43:53;13.00;;;7.53;;
3613;SDS011;1821;50.936;6.854;2022-10-30T02:44:35;12.55;;;8.38;;
3613;SDS011;1821;50.936;6.854;2022-10-30T02:45:16;11.45;;;8.00;;
3613;SDS011;1821;50.936;6.854;2022-10-30T02:45:58;11.25;;;7.90;;
3613;SDS011;1821;50.936;6.854;2022-10-30T02:46:40;12.45;;;8.25;;
3613;SDS011;1821;50.936;6.854;2022-10-30T02:47:22;20.27;;;8.55;;
3613;SDS011;1821;50.936;6.854;2022-10-30T02:48:03;18.85;;;8.35;;
3613;SDS011;1821;50.936;6.854;2022-10-30T02:48:45;14.75;;;8.20;;
3613;SDS011;1821;50.936;6.854;2022-10-30T02:49:27;16.20;;;8.43;;
3613;SDS011;1821;50.936;6.854;2022-10-30T02:50:08;9.68;;;7.20;;
3613;SDS011;1821;50.936;6.854;2022-10-30T02:50:50;12.10;;;7.85;;
3613;SDS011;1821;50.936;6.854;2022-10-30T02:51:32;14.40;;;8.02;;
3613;SDS011;1821;50.936;6.854;2022-10-30T02:52:14;14.75;;;7.93;;
3613;SDS011;1821;50.936;6.854;2022-10-30T02:52:57;13.00;;;7.80;;
3613;SDS011;1821;50.936;6.854;2022-10-30T02:53:40;13.63;;;7.55;;
3613;SDS011;1821;50.936;6.854;2022-10-30T02:54:21;15.30;;;7.50;;
3613;SDS011;1821;50.936;6.854;2022-10-30T02:55:03;10.90;;;7.93;;
3613;SDS011;1821;50.936;6.854;2022-10-30T02:55:45;12.50;;;8.13;;
3613;SDS011;1821;50.936;6.854;2022-10-30T02:56:27;10.35;;;7.85;;
3613;SDS011;1821;50.936;6.854;2022-10-30T02:57:09;12.63;;;8.20;;
3613;SDS011;1821;50.936;6.854;2022-10-30T02:57:50;14.00;;;8.30;;
3613;SDS011;1821;50.936;6.854;2022-10-30T02:58:32;15.48;;;8.55;;
3613;SDS011;1821;50.936;6.854;2022-10-30T02:59:14;12.45;;;8.00;;
3613;SDS011;1821;50.936;6.854;2022-10-30T02:59:56;11.88;;;7.80;;
3613;SDS011;1821;50.936;6.854;2022-10-30T03:00:37;10.68;;;7.40;;
3613;SDS011;1821;50.936;6.854;2022-10-30T03:01:19;12.93;;;9.13;;
3613;SDS011;1821;50.936;6.854;2022-10-30T03:02:01;12.25;;;9.05;;
3613;SDS011;1821;50.936;6.854;2022-10-30T03:02:43;12.30;;;8.43;;
3613;SDS011;1821;50.936;6.854;2022-10-30T03:03:24;11.07;;;8.13;;
3613;SDS011;1821;50.936;6.854;2022-10-30T03:04:06;14.57;;;8.52;;
3613;SDS011;1821;50.936;6.854;2022-10-30T03:04:48;15.07;;;8.80;;
3613;SDS011;1821;50.936;6.854;2022-10-30T03:05:29;14.48;;;8.27;;
3613;SDS011;1821;50.936;6.854;2022-10-30T03:06:12;15.95;;;8.30;;
3613;SDS011;1821;50.936;6.854;2022-10-30T03:06:55;11.77;;;8.50;;
3613;SDS011;1821;50.936;6.854;2022-10-30T03:07:37;11.25;;;8.20;;
3613;SDS011;1821;50.936;6.854;2022-10-30T03:08:19;12.35;;;7.88;;
3613;SDS011;1821;50.936;6.854;2022-10-30T03:09:00;14.60;;;8.27;;
3613;SDS011;1821;50.936;6.854;2022-10-30T03:09:42;10.93;;;8.40;;
3613;SDS011;1821;50.936;6.854;2022-10-30T03:10:23;12.00;;;8.43;;
3613;SDS011;1821;50.936;6.854;2022-10-30T03:11:06;14.98;;;8.02;;
3613;SDS011;1821;50.936;6.854;2022-10-30T03:11:50;13.38;;;7.97;;
3613;SDS011;1821;50.936;6.854;2022-10-30T03:12:32;15.70;;;8.00;;
3613;SDS011;1821;50.936;6.854;2022-10-30T03:13:13;12.10;;;8.10;;
3613;SDS011;1821;50.936;6.854;2022-10-30T03:13:55;13.43;;;7.80;;
3613;SDS011;1821;50.936;6.854;2022-10-30T03:14:37;12.85;;;8.18;;
3613;SDS011;1821;50.936;6.854;2022-10-30T03:15:18;10.85;;;8.57;;
3613;SDS011;1821;50.936;6.854;2022-10-30T03:16:01;12.35;;;8.70;;
3613;SDS011;1821;50.936;6.854;2022-10-30T03:16:44;11.27;;;8.35;;
3613;SDS011;1821;50.936;6.854;2022-10-30T03:17:26;10.95;;;7.95;;
3613;SDS011;1821;50.936;6.854;2022-10-30T03:18:08;11.93;;;7.90;;
3613;SDS011;1821;50.936;6.854;2022-10-30T03:18:50;13.73;;;7.97;;
3613;SDS011;1821;50.936;6.854;2022-10-30T03:19:32;15.10;;;7.63;;
3613;SDS011;1821;50.936;6.854;2022-10-30T03:20:14;11.15;;;7.15;;
3613;SDS011;1821;50.936;6.854;2022-10-30T03:20:56;13.10;;;7.80;;
3613;SDS011;1821;50.936;6.854;2022-10-30T03:21:39;12.45;;;8.10;;
3613;SDS011;1821;50.936;6.854;2022-10-30T03:22:20;16.10;;;8.25;;
3613;SDS011;1821;50.936;6.854;2022-10-30T03:23:02;13.48;;;8.38;;
3613;SDS011;1821;50.936;6.854;2022-10-30T03:23:44;11.65;;;7.40;;
3613;SDS011;1821;50.936;6.854;2022-10-30T03:24:26;15.05;;;8.15;;
3613;SDS011;1821;50.936;6.854;2022-10-30T03:25:07;13.65;;;8.50;;
3613;SDS011;1821;50.936;6.854;2022-10-30T03:25:52;12.02;;;7.50;;
3613;SDS011;1821;50.936;6.854;2022-10-30T03:26:35;12.95;;;7.53;;
3613;SDS011;1821;50.936;6.854;2022-10-30T03:27:17;12.27;;;8.65;;
3613;SDS011;1821;50.936;6.854;2022-10-30T03:27:58;13.77;;;8.45;;
3613;SDS011;1821;50.936;6.854;2022-10-30T03:28:41;13.00;;;7.72;;
3613;SDS011;1821;50.936;6.854;2022-10-30T03:29:23;13.95;;;8.27;;
3613;SDS011;1821;50.936;6.854;2022-10-30T03:30:05;12.50;;;8.30;;
3613;SDS011;1821;50.936;6.854;2022-10-30T03:30:47;11.30;;;7.90;;
3613;SDS011;1821;50.936;6.854;2022-10-30T03:31:29;10.55;;;7.72;;
3613;SDS011;1821;50.936;6.854;2022-10-30T03:32:12;12.68;;;7.93;;
3613;SDS011;1821;50.936;6.854;2022-10-30T03:32:54;14.90;;;8.43;;
3613;SDS011;1821;50.936;6.854;2022-10-30T03:33:37;12.93;;;8.40;;
3613;SDS011;1821;50.936;6.854;2022-10-30T03:34:19;13.05;;;7.70;;
3613;SDS011;1821;50.936;6.854;2022-10-30T03:35:00;12.80;;;8.82;;
3613;SDS011;1821;50.936;6.854;2022-10-30T03:35:45;12.02;;;8.43;;
3613;SDS011;1821;50.936;6.854;2022-10-30T03:36:26;13.02;;;8.45;;
3613;SDS011;1821;50.936;6.854;2022-10-30T03:37:08;13.77;;;9.13;;
3613;SDS011;1821;50.936;6.854;2022-10-30T03:37:50;11.95;;;8.07;;
3613;SDS011;1821;50.936;6.854;2022-10-30T03:38:31;17.40;;;8.50;;
3613;SDS011;1821;50.936;6.854;2022-10-30T03:39:13;14.07;;;7.97;;
3613;SDS011;1821;50.936;6.854;2022-10-30T03:39:55;13.10;;;7.70;;
3613;SDS011;1821;50.936;6.854;2022-10-30T03:40:36;12.32;;;8.05;;
3613;SDS011;1821;50.936;6.854;2022-10-30T03:41:18;13.13;;;7.93;;
3613;SDS011;1821;50.936;6.854;2022-10-30T03:42:00;10.55;;;7.90;;
3613;SDS011;1821;50.936;6.854;2022-10-30T03:42:41;11.00;;;7.57;;
3613;SDS011;1821;50.936;6.854;2022-10-30T03:43:23;10.63;;;7.20;;
3613;SDS011;1821;50.936;6.854;2022-10-30T03:44:05;15.07;;;7.90;;
3613;SDS011;1821;50.936;6.854;2022-10-30T03:44:47;13.77;;;7.93;;
3613;SDS011;1821;50.936;6.854;2022-10-30T03:45:28;11.20;;;7.38;;
3613;SDS011;1821;50.936;6.854;2022-10-30T03:46:11;12.48;;;7.97;;
3613;SDS011;1821;50.936;6.854;2022-10-30T03:46:53;14.57;;;8.00;;
3613;SDS011;1821;50.936;6.854;2022-10-30T03:47:38;12.88;;;7.53;;
3613;SDS011;1821;50.936;6.854;2022-10-30T03:48:21;14.10;;;7.38;;
3613;SDS011;1821;50.936;6.854;2022-10-30T03:49:04;13.02;;;7.70;;
3613;SDS011;1821;50.936;6.854;2022-10-30T03:49:46;11.55;;;8.13;;
3613;SDS011;1821;50.936;6.854;2022-10-30T03:50:27;11.50;;;7.72;;
3613;SDS011;1821;50.936;6.854;2022-10-30T03:51:09;14.88;;;7.78;;
3613;SDS011;1821;50.936;6.854;2022-10-30T03:51:51;11.20;;;7.20;;
3613;SDS011;1821;50.936;6.854;2022-10-30T03:52:32;12.32;;;7.63;;
3613;SDS011;1821;50.936;6.854;2022-10-30T03:53:14;12.70;;;7.88;;
3613;SDS011;1821;50.936;6.854;2022-10-30T03:53:56;13.50;;;7.88;;
3613;SDS011;1821;50.936;6.854;2022-10-30T03:54:38;14.57;;;8.32;;
3613;SDS011;1821;50.936;6.854;2022-10-30T03:55:20;17.38;;;8.68;;
3613;SDS011;1821;50.936;6.854;2022-10-30T03:56:02;17.48;;;8.43;;
3613;SDS011;1821;50.936;6.854;2022-10-30T03:56:44;17.92;;;7.60;;
3613;SDS011;1821;50.936;6.854;2022-10-30T03:57:26;13.30;;;7.70;;
3613;SDS011;1821;50.936;6.854;2022-10-30T03:58:07;13.63;;;8.07;;
3613;SDS011;1821;50.936;6.854;2022-10-30T03:58:49;11.93;;;7.75;;
3613;SDS011;1821;50.936;6.854;2022-10-30T03:59:31;13.57;;;8.02;;
3613;SDS011;1821;50.936;6.854;2022-10-30T04:00:13;12.77;;;7.40;;
3613;SDS011;1821;50.936;6.854;2022-10-30T04:01:05;15.40;;;8.10;;
3613;SDS011;1821;50.936;6.854;2022-10-30T04:01:47;16.40;;;8.07;;
3613;SDS011;1821;50.936;6.854;2022-10-30T04:02:29;12.32;;;8.05;;
3613;SDS011;1821;50.936;6.854;2022-10-30T04:03:11;15.18;;;8.05;;
3613;SDS011;1821;50.936;6.854;2022-10-30T04:03:53;12.82;;;8.00;;
3613;SDS011;1821;50.936;6.854;2022-10-30T04:04:34;13.85;;;7.63;;
3613;SDS011;1821;50.936;6.854;2022-10-30T04:05:17;15.27;;;8.20;;
3613;SDS011;1821;50.936;6.854;2022-10-30T04:06:00;14.77;;;8.40;;
3613;SDS011;1821;50.936;6.854;2022-10-30T04:06:42;9.98;;;7.85;;
3613;SDS011;1821;50.936;6.854;2022-10-30T04:07:24;11.45;;;8.00;;
3613;SDS011;1821;50.936;6.854;2022-10-30T04:08:08;11.02;;;7.40;;
3613;SDS011;1821;50.936;6.854;2022-10-30T04:08:53;15.13;;;7.80;;
3613;SDS011;1821;50.936;6.854;2022-10-30T04:09:35;10.60;;;7.13;;
3613;SDS011;1821;50.936;6.854;2022-10-30T04:10:17;10.93;;;7.53;;
3613;SDS011;1821;50.936;6.854;2022-10-30T04:11:03;12.77;;;7.85;;
3613;SDS011;1821;50.936;6.854;2022-10-30T04:11:45;12.20;;;7.53;;
3613;SDS011;1821;50.936;6.854;2022-10-30T04:12:27;10.68;;;7.15;;
3613;SDS011;1821;50.936;6.854;2022-10-30T04:13:09;11.27;;;7.88;;
3613;SDS011;1821;50.936;6.854;2022-10-30T04:13:51;13.38;;;7.75;;
3613;SDS011;1821;50.936;6.854;2022-10-30T04:14:33;17.85;;;8.02;;
3613;SDS011;1821;50.936;6.854;2022-10-30T04:15:15;15.27;;;7.82;;
3613;SDS011;1821;50.936;6.854;2022-10-30T04:15:56;11.50;;;8.20;;
3613;SDS011;1821;50.936;6.854;2022-10-30T04:16:38;12.32;;;8.02;;
3613;SDS011;1821;50.936;6.854;2022-10-30T04:17:20;12.45;;;8.00;;
3613;SDS011;1821;50.936;6.854;2022-10-30T04:18:02;11.27;;;7.57;;
3613;SDS011;1821;50.936;6.854;2022-10-30T04:18:44;13.75;;;7.60;;
3613;SDS011;1821;50.936;6.854;2022-10-30T04:19:25;14.68;;;7.80;;
3613;SDS011;1821;50.936;6.854;2022-10-30T04:20:07;12.25;;;7.47;;
3613;SDS011;1821;50.936;6.854;2022-10-30T04:20:49;10.40;;;7.45;;
3613;SDS011;1821;50.936;6.854;2022-10-30T04:21:31;12.40;;;7.90;;
3613;SDS011;1821;50.936;6.854;2022-10-30T04:22:12;14.88;;;8.30;;
3613;SDS011;1821;50.936;6.854;2022-10-30T04:23:06;11.65;;;8.18;;
3613;SDS011;1821;50.936;6.854;2022-10-30T04:23:50;13.80;;;8.30;;
3613;SDS011;1821;50.936;6.854;2022-10-30T04:24:34;12.90;;;8.25;;
3613;SDS011;1821;50.936;6.854;2022-10-30T04:25:15;13.50;;;7.97;;
3613;SDS011;1821;50.936;6.854;2022-10-30T04:25:58;9.50;;;7.43;;
3613;SDS011;1821;50.936;6.854;2022-10-30T04:26:41;11.93;;;7.80;;
3613;SDS011;1821;50.936;6.854;2022-10-30T04:27:23;15.20;;;8.27;;
3613;SDS011;1821;50.936;6.854;2022-10-30T04:28:04;12.27;;;7.97;;
3613;SDS011;1821;50.936;6.854;2022-10-30T04:28:46;12.93;;;8.45;;
3613;SDS011;1821;50.936;6.854;2022-10-30T04:29:28;13.70;;;7.95;;
3613;SDS011;1821;50.936;6.854;2022-10-30T04:30:10;11.68;;;7.45;;
3613;SDS011;1821;50.936;6.854;2022-10-30T04:30:53;14.30;;;8.00;;
3613;SDS011;1821;50.936;6.854;2022-10-30T04:31:35;13.90;;;7.43;;
3613;SDS011;1821;50.936;6.854;2022-10-30T04:32:16;12.10;;;7.75;;
3613;SDS011;1821;50.936;6.854;2022-10-30T04:33:00;14.07;;;7.72;;
3613;SDS011;1821;50.936;6.854;2022-10-30T04:33:43;13.27;;;8.18;;
3613;SDS011;1821;50.936;6.854;2022-10-30T04:34:25;13.88;;;8.60;;
3613;SDS011;1821;50.936;6.854;2022-10-30T04:35:07;16.13;;;8.57;;
3613;SDS011;1821;50.936;6.854;2022-10-30T04:35:49;15.32;;;7.85;;
3613;SDS011;1821;50.936;6.854;2022-10-30T04:36:30;15.68;;;7.97;;
3613;SDS011;1821;50.936;6.854;2022-10-30T04:37:14;16.52;;;8.20;;
3613;SDS011;1821;50.936;6.854;2022-10-30T04:37:56;14.65;;;8.63;;
3613;SDS011;1821;50.936;6.854;2022-10-30T04:38:39;12.68;;;8.18;;
3613;SDS011;1821;50.936;6.854;2022-10-30T04:39:21;15.55;;;8.55;;
3613;SDS011;1821;50.936;6.854;2022-10-30T04:40:03;16.08;;;8.73;;
3613;SDS011;1821;50.936;6.854;2022-10-30T04:40:45;19.05;;;9.30;;
3613;SDS011;1821;50.936;6.854;2022-10-30T04:41:26;16.73;;;9.05;;
3613;SDS011;1821;50.936;6.854;2022-10-30T04:42:08;13.40;;;8.10;;
3613;SDS011;1821;50.936;6.854;2022-10-30T04:42:50;14.15;;;7.72;;
3613;SDS011;1821;50.936;6.854;2022-10-30T04:43:32;11.15;;;7.70;;
3613;SDS011;1821;50.936;6.854;2022-10-30T04:44:14;12.02;;;7.20;;
3613;SDS011;1821;50.936;6.854;2022-10-30T04:44:55;15.38;;;7.65;;
3613;SDS011;1821;50.936;6.854;2022-10-30T04:45:37;12.53;;;7.17;;
3613;SDS011;1821;50.936;6.854;2022-10-30T04:46:19;9.95;;;7.22;;
3613;SDS011;1821;50.936;6.854;2022-10-30T04:47:01;14.80;;;8.63;;
3613;SDS011;1821;50.936;6.854;2022-10-30T04:47:43;15.45;;;9.15;;
3613;SDS011;1821;50.936;6.854;2022-10-30T04:48:25;13.10;;;8.77;;
3613;SDS011;1821;50.936;6.854;2022-10-30T04:49:07;14.30;;;8.13;;